Time,TemperatureF,DewpointF,PressureIn,WindDirection,WindDirectionDegrees,WindSpeedMPH,WindSpeedGustMPH,Humidity,HourlyPrecipIn,Conditions,Clouds,dailyrainin,SoftwareType,DateUTC
2013-03-28 00:09:00,36.8,31.0,32.50,SSE,148,7.0,8.0,80,0.00,,,0.00,weatherlink.com 1.10,2013-03-28 06:09:00,
2013-03-28 00:24:00,36.7,31.0,32.50,SE,146,10.0,10.0,81,0.00,,,0.00,weatherlink.com 1.10,2013-03-28 06:24:00,
2013-03-28 00:39:00,36.5,32.0,32.50,SSE,164,7.0,10.0,82,0.00,,,0.00,weatherlink.com 1.10,2013-03-28 06:39:00,
2013-03-28 00:54:00,36.4,31.0,32.50,SSE,163,8.0,11.0,82,0.00,,,0.00,weatherlink.com 1.10,2013-03-28 06:54:00,
2013-03-28 01:09:00,36.0,31.0,32.50,SSE,163,7.0,10.0,83,0.00,,,0.00,weatherlink.com 1.10,2013-03-28 07:09:00,
2013-03-28 01:24:00,35.7,32.0,32.50,South,173,8.0,12.0,85,0.00,,,0.00,weatherlink.com 1.10,2013-03-28 07:24:00,
2013-03-28 01:39:00,35.4,32.0,32.50,SSE,159,8.0,10.0,86,0.00,,,0.00,weatherlink.com 1.10,2013-03-28 07:39:00,
2013-03-28 01:54:00,36.1,32.0,32.50,SSE,153,9.0,10.0,84,0.00,,,0.00,weatherlink.com 1.10,2013-03-28 07:54:00,
2013-03-28 02:09:00,35.2,31.0,32.50,SE,142,10.0,12.0,86,0.00,,,0.00,weatherlink.com 1.10,2013-03-28 08:09:00,
2013-03-28 02:24:00,35.2,31.0,32.50,SSE,147,9.0,12.0,86,0.00,,,0.00,weatherlink.com 1.10,2013-03-28 08:24:00,
2013-03-28 02:39:00,35.3,32.0,32.50,SE,140,10.0,12.0,86,0.00,,,0.00,weatherlink.com 1.10,2013-03-28 08:39:00,
2013-03-28 02:54:00,35.2,31.0,32.50,SE,144,9.0,12.0,86,0.00,,,0.00,weatherlink.com 1.10,2013-03-28 08:54:00,
2013-03-28 03:09:00,35.0,32.0,32.50,SSE,155,10.0,13.0,87,0.00,,,0.00,weatherlink.com 1.10,2013-03-28 09:09:00,
2013-03-28 03:24:00,34.7,31.0,32.50,SSE,160,10.0,11.0,87,0.00,,,0.00,weatherlink.com 1.10,2013-03-28 09:24:00,
2013-03-28 03:39:00,34.9,31.0,32.50,SSE,159,8.0,10.0,86,0.00,,,0.00,weatherlink.com 1.10,2013-03-28 09:39:00,
2013-03-28 03:54:00,34.6,31.0,32.50,SSE,151,10.0,11.0,87,0.00,,,0.00,weatherlink.com 1.10,2013-03-28 09:54:00,
2013-03-28 04:09:00,34.4,31.0,32.50,SSE,160,9.0,11.0,88,0.00,,,0.00,weatherlink.com 1.10,2013-03-28 10:09:00,
2013-03-28 04:24:00,34.5,31.0,32.50,SSE,157,8.0,10.0,88,0.00,,,0.00,weatherlink.com 1.10,2013-03-28 10:24:00,
2013-03-28 04:39:00,34.3,31.0,32.50,SSE,158,8.0,10.0,87,0.00,,,0.00,weatherlink.com 1.10,2013-03-28 10:39:00,
2013-03-28 04:54:00,34.2,31.0,32.50,SSE,167,10.0,10.0,87,0.00,,,0.00,weatherlink.com 1.10,2013-03-28 10:54:00,
2013-03-28 05:09:00,34.3,31.0,32.50,South,178,13.0,13.0,86,0.00,,,0.00,weatherlink.com 1.10,2013-03-28 11:09:00,
2013-03-28 05:24:00,34.1,30.0,32.50,South,182,13.0,15.0,86,0.00,,,0.00,weatherlink.com 1.10,2013-03-28 11:24:00,
2013-03-28 05:39:00,34.5,31.0,32.50,South,169,9.0,16.0,85,0.00,,,0.00,weatherlink.com 1.10,2013-03-28 11:39:00,
2013-03-28 05:54:00,34.6,30.0,32.50,South,174,10.0,15.0,84,0.00,,,0.00,weatherlink.com 1.10,2013-03-28 11:54:00,
2013-03-28 06:09:00,34.3,30.0,32.50,South,180,10.0,16.0,85,0.00,,,0.00,weatherlink.com 1.10,2013-03-28 12:09:00,
2013-03-28 06:24:00,34.6,30.0,32.50,SSE,156,10.0,15.0,84,0.00,,,0.00,weatherlink.com 1.10,2013-03-28 12:24:00,
2013-03-28 06:39:00,34.6,30.0,32.50,SSE,166,11.0,14.0,84,0.00,,,0.00,weatherlink.com 1.10,2013-03-28 12:39:00,
2013-03-28 06:54:00,34.7,30.0,32.50,South,176,11.0,13.0,84,0.00,,,0.00,weatherlink.com 1.10,2013-03-28 12:54:00,
2013-03-28 07:09:00,34.7,30.0,32.50,South,174,10.0,18.0,84,0.00,,,0.00,weatherlink.com 1.10,2013-03-28 13:09:00,
2013-03-28 07:24:00,34.4,30.0,32.50,South,176,11.0,15.0,85,0.00,,,0.00,weatherlink.com 1.10,2013-03-28 13:24:00,
2013-03-28 07:40:00,34.6,30.0,32.50,South,169,9.0,13.0,84,0.00,,,0.00,weatherlink.com 1.10,2013-03-28 13:40:00,
2013-03-28 07:55:00,33.9,30.0,32.50,SSE,158,9.0,11.0,86,0.00,,,0.00,weatherlink.com 1.10,2013-03-28 13:55:00,
2013-03-28 08:10:00,34.2,30.0,32.50,SSE,154,9.0,13.0,85,0.00,,,0.00,weatherlink.com 1.10,2013-03-28 14:10:00,
2013-03-28 08:25:00,35.0,31.0,32.50,South,178,9.0,13.0,84,0.00,,,0.00,weatherlink.com 1.10,2013-03-28 14:25:00,
2013-03-28 08:40:00,35.3,31.0,32.50,South,174,8.0,12.0,83,0.00,,,0.00,weatherlink.com 1.10,2013-03-28 14:40:00,
2013-03-28 08:55:00,35.0,30.0,32.50,South,178,11.0,13.0,82,0.00,,,0.00,weatherlink.com 1.10,2013-03-28 14:55:00,
2013-03-28 09:10:00,34.9,30.0,32.50,South,182,14.0,15.0,81,0.00,,,0.00,weatherlink.com 1.10,2013-03-28 15:10:00,
2013-03-28 09:25:00,35.1,30.0,32.50,South,172,11.0,13.0,81,0.00,,,0.00,weatherlink.com 1.10,2013-03-28 15:25:00,
2013-03-28 09:40:00,35.8,31.0,32.50,SSE,156,10.0,12.0,82,0.00,,,0.00,weatherlink.com 1.10,2013-03-28 15:40:00,
2013-03-28 09:55:00,35.5,30.0,32.50,SSE,159,9.0,11.0,80,0.00,,,0.00,weatherlink.com 1.10,2013-03-28 15:55:00,
2013-03-28 10:10:00,35.6,30.0,32.50,SSE,156,11.0,13.0,80,0.00,,,0.00,weatherlink.com 1.10,2013-03-28 16:10:00,
2013-03-28 10:25:00,36.2,30.0,32.50,SSE,153,9.0,12.0,78,0.00,,,0.00,weatherlink.com 1.10,2013-03-28 16:25:00,
2013-03-28 10:40:00,36.7,31.0,32.50,SSW,200,9.0,14.0,79,0.00,,,0.00,weatherlink.com 1.10,2013-03-28 16:40:00,
2013-03-28 10:55:00,36.8,30.0,32.50,SSE,155,9.0,14.0,77,0.00,,,0.00,weatherlink.com 1.10,2013-03-28 16:55:00,
2013-03-28 11:10:00,37.2,31.0,32.50,SSE,149,8.0,13.0,77,0.00,,,0.00,weatherlink.com 1.10,2013-03-28 17:10:00,
2013-03-28 11:25:00,38.6,31.0,32.50,SSE,153,11.0,15.0,74,0.00,,,0.00,weatherlink.com 1.10,2013-03-28 17:25:00,
2013-03-28 11:40:00,38.8,30.0,32.50,South,173,9.0,15.0,71,0.00,,,0.00,weatherlink.com 1.10,2013-03-28 17:40:00,
2013-03-28 11:55:00,40.3,31.0,32.50,SSW,192,7.0,14.0,70,0.00,,,0.00,weatherlink.com 1.10,2013-03-28 17:55:00,
2013-03-28 12:10:00,40.1,32.0,32.50,SSW,207,7.0,13.0,72,0.00,,,0.00,weatherlink.com 1.10,2013-03-28 18:10:00,
2013-03-28 12:25:00,40.6,31.0,32.50,South,173,9.0,17.0,69,0.00,,,0.00,weatherlink.com 1.10,2013-03-28 18:25:00,
2013-03-28 12:40:00,40.0,31.0,32.50,SSE,165,11.0,18.0,69,0.00,,,0.00,weatherlink.com 1.10,2013-03-28 18:40:00,
2013-03-28 12:55:00,40.2,31.0,32.50,South,181,6.0,9.0,70,0.00,,,0.00,weatherlink.com 1.10,2013-03-28 18:55:00,
2013-03-28 13:10:00,41.8,31.0,32.50,SSE,166,8.0,14.0,66,0.00,,,0.00,weatherlink.com 1.10,2013-03-28 19:10:00,
2013-03-28 13:25:00,41.5,32.0,32.50,SW,223,3.0,13.0,68,0.00,,,0.00,weatherlink.com 1.10,2013-03-28 19:25:00,
2013-03-28 13:40:00,42.4,32.0,32.50,SW,229,4.0,7.0,66,0.00,,,0.00,weatherlink.com 1.10,2013-03-28 19:40:00,
2013-03-28 13:55:00,42.4,31.0,32.50,SSE,168,6.0,9.0,65,0.00,,,0.00,weatherlink.com 1.10,2013-03-28 19:55:00,
2013-03-28 14:10:00,42.5,31.0,32.50,SSW,207,7.0,11.0,65,0.00,,,0.00,weatherlink.com 1.10,2013-03-28 20:10:00,
2013-03-28 14:25:00,42.1,31.0,32.50,SSW,201,7.0,13.0,66,0.00,,,0.00,weatherlink.com 1.10,2013-03-28 20:25:00,
2013-03-28 14:40:00,42.1,33.0,32.50,West,279,1.0,8.0,70,0.00,,,0.00,weatherlink.com 1.10,2013-03-28 20:40:00,
2013-03-28 14:55:00,42.1,31.0,32.50,SW,221,4.0,9.0,66,0.00,,,0.00,weatherlink.com 1.10,2013-03-28 20:55:00,
2013-03-28 15:10:00,43.2,32.0,32.50,SSW,198,7.0,11.0,66,0.00,,,0.00,weatherlink.com 1.10,2013-03-28 21:10:00,
2013-03-28 15:25:00,42.7,32.0,32.50,South,191,6.0,11.0,67,0.00,,,0.00,weatherlink.com 1.10,2013-03-28 21:25:00,
2013-03-28 15:40:00,44.0,33.0,32.50,SW,233,7.0,14.0,65,0.00,,,0.00,weatherlink.com 1.10,2013-03-28 21:40:00,
2013-03-28 15:55:00,45.6,34.0,32.50,West,273,2.0,9.0,65,0.00,,,0.00,weatherlink.com 1.10,2013-03-28 21:55:00,
2013-03-28 16:10:00,44.1,33.0,32.50,NW,311,5.0,10.0,66,0.00,,,0.00,weatherlink.com 1.10,2013-03-28 22:10:00,
2013-03-28 16:25:00,42.4,33.0,32.50,WNW,298,5.0,9.0,69,0.00,,,0.00,weatherlink.com 1.10,2013-03-28 22:25:00,
2013-03-28 16:40:00,40.8,32.0,32.50,WNW,286,10.0,12.0,72,0.00,,,0.00,weatherlink.com 1.10,2013-03-28 22:40:00,
2013-03-28 16:55:00,40.4,33.0,32.50,NW,306,5.0,9.0,76,0.00,,,0.00,weatherlink.com 1.10,2013-03-28 22:55:00,
2013-03-28 17:10:00,39.6,33.0,32.50,WNW,296,9.0,14.0,78,0.00,,,0.00,weatherlink.com 1.10,2013-03-28 23:10:00,
2013-03-28 17:25:00,39.1,34.0,32.50,NW,324,5.0,12.0,81,0.00,,,0.00,weatherlink.com 1.10,2013-03-28 23:25:00,
2013-03-28 17:40:00,39.2,33.0,32.50,NW,313,2.0,7.0,79,0.00,,,0.00,weatherlink.com 1.10,2013-03-28 23:40:00,
2013-03-28 17:55:00,40.0,33.0,32.50,NW,313,3.0,4.0,75,0.00,,,0.00,weatherlink.com 1.10,2013-03-28 23:55:00,
2013-03-28 18:10:00,40.2,33.0,32.50,NW,304,5.0,7.0,74,0.00,,,0.00,weatherlink.com 1.10,2013-03-29 00:10:00,
2013-03-28 18:25:00,40.7,32.0,32.50,WNW,286,9.0,13.0,72,0.00,,,0.00,weatherlink.com 1.10,2013-03-29 00:25:00,
2013-03-28 18:40:00,40.7,32.0,32.50,NW,306,5.0,10.0,72,0.00,,,0.00,weatherlink.com 1.10,2013-03-29 00:40:00,
2013-03-28 18:55:00,40.5,32.0,32.50,NW,315,6.0,10.0,73,0.00,,,0.00,weatherlink.com 1.10,2013-03-29 00:55:00,
2013-03-28 19:10:00,40.6,33.0,32.50,NNW,335,5.0,9.0,73,0.00,,,0.00,weatherlink.com 1.10,2013-03-29 01:10:00,
2013-03-28 19:25:00,40.0,33.0,32.50,NNW,340,6.0,7.0,76,0.00,,,0.00,weatherlink.com 1.10,2013-03-29 01:25:00,
2013-03-28 19:40:00,39.5,33.0,32.50,NW,309,4.0,7.0,78,0.00,,,0.00,weatherlink.com 1.10,2013-03-29 01:40:00,
2013-03-28 19:56:00,39.1,34.0,32.50,WNW,292,3.0,5.0,81,0.00,,,0.00,weatherlink.com 1.10,2013-03-29 01:56:00,
2013-03-28 20:11:00,38.8,34.0,32.50,NW,313,4.0,5.0,83,0.00,,,0.00,weatherlink.com 1.10,2013-03-29 02:11:00,
2013-03-28 20:26:00,38.9,34.0,32.50,NW,323,5.0,7.0,81,0.00,,,0.00,weatherlink.com 1.10,2013-03-29 02:26:00,
2013-03-28 20:41:00,39.2,33.0,32.50,NW,309,4.0,7.0,79,0.00,,,0.00,weatherlink.com 1.10,2013-03-29 02:41:00,
2013-03-28 20:56:00,39.6,33.0,32.50,West,279,5.0,6.0,78,0.00,,,0.00,weatherlink.com 1.10,2013-03-29 02:56:00,
2013-03-28 21:11:00,39.5,34.0,32.50,WNW,292,5.0,6.0,79,0.00,,,0.00,weatherlink.com 1.10,2013-03-29 03:11:00,
2013-03-28 21:26:00,39.2,33.0,32.50,SSW,212,4.0,5.0,79,0.00,,,0.00,weatherlink.com 1.10,2013-03-29 03:26:00,
2013-03-28 21:41:00,39.2,34.0,32.50,SW,228,2.0,4.0,80,0.00,,,0.00,weatherlink.com 1.10,2013-03-29 03:41:00,
2013-03-28 21:56:00,39.1,33.0,32.50,WSW,249,2.0,3.0,80,0.00,,,0.00,weatherlink.com 1.10,2013-03-29 03:56:00,
2013-03-28 22:11:00,38.9,34.0,32.50,SW,215,1.0,4.0,82,0.00,,,0.00,weatherlink.com 1.10,2013-03-29 04:11:00,
2013-03-28 22:26:00,37.9,34.0,32.50,South,188,1.0,1.0,85,0.00,,,0.00,weatherlink.com 1.10,2013-03-29 04:26:00,
2013-03-28 22:41:00,37.7,34.0,32.50,South,190,0.0,3.0,86,0.00,,,0.00,weatherlink.com 1.10,2013-03-29 04:41:00,
2013-03-28 22:56:00,37.7,34.0,32.50,SW,232,0.0,3.0,86,0.00,,,0.00,weatherlink.com 1.10,2013-03-29 04:56:00,
2013-03-28 23:11:00,37.5,34.0,32.50,SW,232,1.0,1.0,87,0.00,,,0.00,weatherlink.com 1.10,2013-03-29 05:11:00,
2013-03-28 23:26:00,38.0,34.0,32.50,SSW,210,5.0,6.0,86,0.00,,,0.00,weatherlink.com 1.10,2013-03-29 05:26:00,
2013-03-28 23:41:00,38.5,34.0,32.50,SW,217,2.0,4.0,84,0.00,,,0.00,weatherlink.com 1.10,2013-03-29 05:41:00,
2013-03-28 23:56:00,38.3,34.0,32.50,SW,217,2.0,3.0,85,0.00,,,0.00,weatherlink.com 1.10,2013-03-29 05:56:00,